ADDS TAF Board INFO
 
 

IDs: Format: Expanded Condensed

KPDX - Portland Intl Arpt, OR, US

Issued at 1750 UTC 20 Aug 2014
Time1753Z20/19Z20/20Z20/21Z20/22Z20/23Z21/00Z21/01Z21/02Z21/03Z21/04Z21/05Z21/06Z21/07Z
TypeOBSPRVLPRVLPRVLPRVLPRVLPRVLPRVLPRVLPRVLPRVLPRVLPRVLPRVL
Vis10>6>6>6>6>6>6>6>6>6>6>6>6>6
Cig3945454545----------------45
CoverBKNBKNBKNBKNBKNSCTSCTSCTSCTSCTSCTSCTSCTBKN
FltCat--VFRVFRVFRVFRVFRVFRVFRVFRVFRVFRVFRVFRVFR
Wx----------------------------
WDir300320320320320320320320320320320320320300
WSpd5666610101010101010105
WGst----------------------------
R03/21
XWnd5666610101010101010105
HWnd-1111111111111-1
R10/28
XWnd02222444444440
HWnd-5-6-6-6-6-9-9-9-9-9-9-9-9-5
Raw TAF
KPDX 201750Z 2018/2118 36003KT P6SM FEW027 BKN035 BKN100
  FM201900 32006KT P6SM SCT035 BKN045
  FM202300 32010KT P6SM SCT050
  FM210700 30005KT P6SM BKN045
  FM211300 31005KT P6SM BKN030


Raw METAR
KPDX 201753Z 30005KT 10SM BKN039 BKN100 19/09 A2999 RMK AO2 SLP156 T01940094 10194 20161 51007

TAF Board Legend

Hazard Green Yellow Red Magenta
Visibility (sm) >5 >2.99 >0.99 <=0.99
Ceiling (100 ft) >30 >9.99 >4.99 <=4.99
Wind Speed (kt) <10 <20 <30 >=30
Wind Gust (kt) <10 <20 <30 >=30
Weather No Wx Reported Light precipitation Moderate precipitation Heavy precipitation
Flight Category VFR MVFR IFR LIFR

Page loaded:  18:30 UTC  |   11:30 AM Pacific  |   12:30 PM Mountain  |   01:30 PM Central  |   02:30 PM Eastern

 

ADVISORIES

FORECASTS

FORECASTS

OBSERVATIONS

USER TOOLS

ABOUT US